createdAt,value
2017-12-17T00:00:35.445Z,1.6
2017-12-17T00:01:57.731Z,1.5
2017-12-17T00:03:22.499Z,1.5
2017-12-17T00:04:42.204Z,1.5
2017-12-17T00:06:01.896Z,1.5
2017-12-17T00:07:21.611Z,1.3
2017-12-17T00:08:48.957Z,1.1
2017-12-17T00:10:16.249Z,0.9
2017-12-17T00:11:38.528Z,0.9
2017-12-17T00:12:58.299Z,1
2017-12-17T00:14:18.063Z,1.1
2017-12-17T00:15:37.783Z,1.2
2017-12-17T00:17:02.535Z,1.3
2017-12-17T00:18:24.825Z,1.3
2017-12-17T00:19:49.615Z,1.4
2017-12-17T00:21:09.324Z,1.4
2017-12-17T00:22:29.117Z,1.5
2017-12-17T00:23:48.854Z,1.6
2017-12-17T00:25:08.594Z,1.6
2017-12-17T00:26:35.884Z,1.6
2017-12-17T00:27:55.638Z,1.6
2017-12-17T00:29:22.992Z,1.6
2017-12-17T00:30:52.865Z,1.6
2017-12-17T00:32:12.569Z,1.7
2017-12-17T00:33:37.362Z,1.6
2017-12-17T00:34:57.149Z,1.6
2017-12-17T00:36:21.919Z,1.6
2017-12-17T00:37:46.659Z,1.6
2017-12-17T00:39:08.922Z,1.6
2017-12-17T00:40:28.713Z,1.6
2017-12-17T00:41:50.957Z,1.6
2017-12-17T00:43:10.737Z,1.6
2017-12-17T00:44:35.490Z,1.6
2017-12-17T00:45:57.738Z,1.7
2017-12-17T00:47:25.030Z,1.7
2017-12-17T00:48:44.746Z,1.6
2017-12-17T00:50:04.439Z,1.6
2017-12-17T00:51:24.162Z,1.6
2017-12-17T00:52:43.886Z,1.6
2017-12-17T00:54:11.183Z,1.6
2017-12-17T00:55:30.946Z,1.6
2017-12-17T00:56:50.719Z,1.6
2017-12-17T00:58:20.601Z,1.6
2017-12-17T00:59:42.841Z,1.5
2017-12-17T01:01:02.581Z,1.5
2017-12-17T01:02:22.305Z,1.5
2017-12-17T01:03:44.537Z,1.5
2017-12-17T01:05:04.249Z,1.4
2017-12-17T01:06:34.141Z,1.3
2017-12-17T01:07:53.913Z,1.3
2017-12-17T01:09:31.397Z,1.3
2017-12-17T01:10:51.101Z,1.3
2017-12-17T01:12:10.855Z,1.3
2017-12-17T01:13:30.597Z,1.3
2017-12-17T01:14:50.293Z,1.4
2017-12-17T01:16:12.541Z,1.4
2017-12-17T01:17:32.290Z,1.4
2017-12-17T01:18:52.060Z,1.4
2017-12-17T01:20:11.780Z,1.5
2017-12-17T01:21:31.472Z,1.5
2017-12-17T01:22:53.730Z,1.5
2017-12-17T01:24:26.110Z,1.5
2017-12-17T01:25:48.379Z,1.5
2017-12-17T01:27:08.123Z,1.5
2017-12-17T01:28:27.879Z,1.5
2017-12-17T01:29:47.666Z,1.5
2017-12-17T01:31:17.509Z,1.5
2017-12-17T01:32:39.764Z,1.5
2017-12-17T01:34:07.110Z,1.5
2017-12-17T01:35:29.349Z,1.5
2017-12-17T01:36:49.045Z,1.5
2017-12-17T01:38:08.776Z,1.5
2017-12-17T01:39:28.562Z,1.5
2017-12-17T01:40:50.823Z,1.5
2017-12-17T01:42:10.532Z,1.5
2017-12-17T01:43:35.298Z,1.6
2017-12-17T01:44:55.038Z,1.6
2017-12-17T01:46:17.336Z,1.6
2017-12-17T01:47:37.036Z,1.6
2017-12-17T01:48:59.326Z,1.6
2017-12-17T01:50:19.027Z,1.5
2017-12-17T01:51:43.827Z,1.5
2017-12-17T01:53:11.137Z,1.5
2017-12-17T01:54:30.842Z,1.5
2017-12-17T01:55:55.604Z,1.5
2017-12-17T01:57:15.346Z,1.4
2017-12-17T01:58:35.055Z,1.4
2017-12-17T01:59:54.802Z,1.4
2017-12-17T02:01:14.571Z,1.4
2017-12-17T02:02:36.826Z,1.4
2017-12-17T02:03:56.538Z,1.4
2017-12-17T02:05:18.811Z,1.4
2017-12-17T02:06:43.589Z,1.3
2017-12-17T02:08:10.953Z,1.3
2017-12-17T02:09:35.712Z,1.4
2017-12-17T02:11:10.631Z,1.4
2017-12-17T02:12:38.001Z,1.3
2017-12-17T02:13:57.724Z,1.3
2017-12-17T02:15:20.023Z,1.4
2017-12-17T02:16:39.738Z,1.3
2017-12-17T02:17:59.434Z,1.3
2017-12-17T02:19:19.221Z,1.3
2017-12-17T02:20:38.958Z,1.3
2017-12-17T02:21:58.657Z,1.2
2017-12-17T02:23:18.386Z,1.3
2017-12-17T02:24:38.141Z,1.3
2017-12-17T02:26:00.377Z,1.3
2017-12-17T02:27:20.083Z,1.3
2017-12-17T02:28:39.778Z,1.2
2017-12-17T02:29:59.535Z,1.2
2017-12-17T02:31:19.279Z,1.2
2017-12-17T02:32:41.534Z,1.2
2017-12-17T02:34:01.267Z,1.3
2017-12-17T02:35:23.532Z,1.3
2017-12-17T02:36:45.767Z,1.3
2017-12-17T02:38:05.506Z,1.3
2017-12-17T02:39:27.758Z,1.3
2017-12-17T02:40:52.574Z,1.3
2017-12-17T02:42:17.365Z,1.3
2017-12-17T02:43:37.061Z,1.3
2017-12-17T02:44:59.337Z,1.3
2017-12-17T02:46:19.066Z,1.3
2017-12-17T02:47:41.342Z,1.3
2017-12-17T02:49:01.056Z,1.3
2017-12-17T02:50:20.747Z,1.3
2017-12-17T02:51:50.623Z,1.3
2017-12-17T02:53:10.342Z,1.3
2017-12-17T02:54:32.587Z,1.3
2017-12-17T02:55:52.347Z,1.3
2017-12-17T02:57:12.078Z,1.3
2017-12-17T02:58:31.780Z,1.3
2017-12-17T02:59:51.531Z,1.3
2017-12-17T03:01:21.366Z,1.3
2017-12-17T03:02:41.097Z,1.3
2017-12-17T03:04:00.808Z,1.3
2017-12-17T03:05:20.521Z,1.3
2017-12-17T03:06:45.297Z,1.3
2017-12-17T03:08:05.034Z,1.3
2017-12-17T03:09:27.270Z,1.3
2017-12-17T03:10:54.592Z,1.3
2017-12-17T03:12:16.857Z,1.3
2017-12-17T03:13:39.136Z,1.3
2017-12-17T03:14:58.838Z,1.2
2017-12-17T03:16:23.594Z,1.2
2017-12-17T03:17:43.320Z,1.2
2017-12-17T03:19:03.095Z,1.1
2017-12-17T03:20:22.854Z,1.2
2017-12-17T03:21:42.588Z,1.1
2017-12-17T03:23:09.896Z,1.1
2017-12-17T03:24:34.691Z,1.1
2017-12-17T03:25:56.953Z,1.2
2017-12-17T03:27:16.708Z,1.1
2017-12-17T03:28:44.016Z,1.1
2017-12-17T03:30:03.720Z,1.1
2017-12-17T03:31:23.429Z,1.1
2017-12-17T03:32:45.655Z,1.1
2017-12-17T03:34:05.352Z,1.1
2017-12-17T03:35:25.125Z,1.1
2017-12-17T03:36:49.898Z,1.1
2017-12-17T03:38:09.652Z,1.1
2017-12-17T03:39:31.891Z,1.1
2017-12-17T03:40:51.611Z,1.1
2017-12-17T03:42:11.307Z,1.1
2017-12-17T03:43:31.057Z,1.1
2017-12-17T03:44:53.331Z,1.1
2017-12-17T03:46:13.137Z,1.1
2017-12-17T03:47:32.858Z,1.1
2017-12-17T03:48:52.640Z,1.1
2017-12-17T03:50:12.366Z,1.1
2017-12-17T03:51:42.253Z,1.1
2017-12-17T03:53:04.550Z,1.1
2017-12-17T03:54:29.367Z,1.1
2017-12-17T03:55:51.594Z,1.1
2017-12-17T03:57:11.312Z,1.1
2017-12-17T03:58:31.010Z,1.1
2017-12-17T03:59:53.257Z,1.1
2017-12-17T04:01:12.973Z,1.2
2017-12-17T04:02:32.707Z,1.1
2017-12-17T04:03:57.552Z,1.1
2017-12-17T04:05:17.277Z,1.1
2017-12-17T04:06:37.006Z,1.1
2017-12-17T04:08:04.349Z,1.1
2017-12-17T04:09:29.169Z,1.1
2017-12-17T04:10:48.921Z,1.1
2017-12-17T04:12:08.625Z,1.1
2017-12-17T04:13:28.341Z,1.1
2017-12-17T04:14:48.123Z,1.1
2017-12-17T04:16:10.404Z,1.1
2017-12-17T04:17:30.108Z,1.1
2017-12-17T04:18:57.508Z,1.1
2017-12-17T04:20:17.218Z,1.1
2017-12-17T04:21:37.003Z,1.1
2017-12-17T04:23:04.378Z,1.1
2017-12-17T04:24:24.098Z,1.1
2017-12-17T04:25:46.389Z,1.1
2017-12-17T04:27:06.136Z,1
2017-12-17T04:28:25.852Z,1
2017-12-17T04:29:48.120Z,1
2017-12-17T04:31:10.355Z,0.9
2017-12-17T04:32:40.178Z,0.7
2017-12-17T04:34:02.445Z,0.7
2017-12-17T04:35:32.310Z,0.7
2017-12-17T04:37:02.139Z,0.7
2017-12-17T04:38:21.891Z,0.8
2017-12-17T04:39:41.653Z,0.9
2017-12-17T04:41:08.967Z,1
2017-12-17T04:42:28.661Z,1
2017-12-17T04:43:55.987Z,1
2017-12-17T04:45:15.733Z,1
2017-12-17T04:46:43.044Z,1.1
2017-12-17T04:48:02.793Z,1.1
2017-12-17T04:49:25.041Z,1.1
2017-12-17T04:50:47.310Z,1.1
2017-12-17T04:52:09.584Z,1.2
2017-12-17T04:53:29.344Z,1.2
2017-12-17T04:54:54.131Z,1.2
2017-12-17T04:56:13.866Z,1.2
2017-12-17T04:57:33.568Z,1.2
2017-12-17T04:58:58.378Z,1.2
2017-12-17T05:00:18.128Z,1.2
2017-12-17T05:01:42.930Z,1.2
2017-12-17T05:03:02.696Z,1.2
2017-12-17T05:04:27.537Z,1.2
2017-12-17T05:05:47.293Z,1.1
2017-12-17T05:07:07.016Z,1.1
2017-12-17T05:08:26.760Z,1.1
2017-12-17T05:09:51.563Z,1.2
2017-12-17T05:11:16.334Z,1.2
2017-12-17T05:12:36.036Z,1.2
2017-12-17T05:13:55.774Z,1.2
2017-12-17T05:15:20.538Z,1.1
2017-12-17T05:16:40.248Z,1.1
2017-12-17T05:18:02.565Z,1
2017-12-17T05:19:22.306Z,0.9
2017-12-17T05:20:42.031Z,0.9
2017-12-17T05:22:01.728Z,0.9
2017-12-17T05:23:21.429Z,1
2017-12-17T05:24:41.136Z,0.9
2017-12-17T05:26:00.872Z,0.9
2017-12-17T05:27:23.177Z,1
2017-12-17T05:28:42.928Z,1
2017-12-17T05:30:02.678Z,1
2017-12-17T05:31:24.914Z,0.9
2017-12-17T05:32:44.618Z,0.9
2017-12-17T05:34:04.309Z,0.8
2017-12-17T05:35:24.069Z,0.6
2017-12-17T05:36:48.879Z,0.5
2017-12-17T05:38:08.599Z,0.4
2017-12-17T05:39:38.438Z,0.3
2017-12-17T05:40:58.227Z,0.2
2017-12-17T05:42:20.531Z,0.1
2017-12-17T05:43:40.237Z,0.1
2017-12-17T05:45:07.592Z,0
2017-12-17T05:46:27.378Z,0
2017-12-17T05:47:54.678Z,0.1
2017-12-17T05:49:19.498Z,0.2
2017-12-17T05:50:39.202Z,0.4
2017-12-17T05:51:58.932Z,0.4
2017-12-17T05:53:18.630Z,0.6
2017-12-17T05:54:38.339Z,0.6
2017-12-17T05:56:00.587Z,0.7
2017-12-17T05:57:20.309Z,0.8
2017-12-17T05:58:40.050Z,0.8
2017-12-17T05:59:59.744Z,0.8
2017-12-17T06:01:19.471Z,0.8
2017-12-17T06:02:39.204Z,0.5
2017-12-17T06:03:58.902Z,0.4
2017-12-17T06:05:18.625Z,0.4
2017-12-17T06:06:38.379Z,0.3
2017-12-17T06:08:00.646Z,0.3
2017-12-17T06:09:20.370Z,0.3
2017-12-17T06:10:52.778Z,0.3
2017-12-17T06:12:15.051Z,0.2
2017-12-17T06:13:37.308Z,0.1
2017-12-17T06:14:57.085Z,-0.1
2017-12-17T06:16:24.398Z,-0.3
2017-12-17T06:17:54.240Z,-0.5
2017-12-17T06:19:13.976Z,-0.7
2017-12-17T06:20:33.696Z,-0.8
2017-12-17T06:21:53.447Z,-0.9
2017-12-17T06:23:13.159Z,-0.8
2017-12-17T06:24:37.970Z,-0.8
2017-12-17T06:26:00.259Z,-0.7
2017-12-17T06:27:25.076Z,-0.7
2017-12-17T06:28:54.904Z,-0.7
2017-12-17T06:30:14.652Z,-0.7
2017-12-17T06:31:34.374Z,-0.6
2017-12-17T06:32:54.093Z,-0.4
2017-12-17T06:34:18.915Z,-0.2
2017-12-17T06:35:46.247Z,0
2017-12-17T06:37:08.487Z,0.1
2017-12-17T06:38:28.175Z,0.1
2017-12-17T06:39:47.911Z,0.1
2017-12-17T06:41:10.144Z,0.1
2017-12-17T06:42:32.434Z,0.1
2017-12-17T06:43:57.226Z,0.1
2017-12-17T06:45:16.986Z,0.1
2017-12-17T06:46:41.795Z,0.1
2017-12-17T06:48:04.038Z,0.2
2017-12-17T06:49:26.258Z,0.3
2017-12-17T06:50:45.964Z,0.4
2017-12-17T06:52:05.687Z,0.4
2017-12-17T06:53:25.385Z,0.5
2017-12-17T06:54:45.088Z,0.5
2017-12-17T06:56:04.833Z,0.6
2017-12-17T06:57:24.567Z,0.6
2017-12-17T06:58:44.274Z,0.6
2017-12-17T07:00:03.990Z,0.6
2017-12-17T07:01:31.275Z,0.6
2017-12-17T07:02:51.031Z,0.6
2017-12-17T07:04:10.736Z,0.6
2017-12-17T07:05:40.596Z,0.6
2017-12-17T07:07:00.326Z,0.6
2017-12-17T07:08:22.606Z,0.7
2017-12-17T07:09:49.956Z,0.7
2017-12-17T07:11:09.657Z,0.7
2017-12-17T07:12:34.478Z,0.7
2017-12-17T07:13:59.242Z,0.7
2017-12-17T07:15:21.477Z,0.7
2017-12-17T07:17:03.998Z,0.7
2017-12-17T07:18:23.713Z,0.7
2017-12-17T07:19:43.458Z,0.7
2017-12-17T07:21:05.698Z,0.8
2017-12-17T07:22:27.935Z,0.8
2017-12-17T07:23:50.164Z,0.8
2017-12-17T07:25:09.913Z,0.8
2017-12-17T07:26:32.271Z,0.8
2017-12-17T07:27:52.008Z,0.9
2017-12-17T07:29:11.731Z,0.8
2017-12-17T07:30:44.087Z,0.8
2017-12-17T07:32:03.814Z,0.8
2017-12-17T07:33:23.527Z,0.9
2017-12-17T07:34:43.234Z,0.9
2017-12-17T07:36:02.946Z,0.9
2017-12-17T07:37:22.673Z,0.9
2017-12-17T07:38:42.379Z,1
2017-12-17T07:40:02.109Z,1
2017-12-17T07:41:21.870Z,1
2017-12-17T07:42:44.096Z,1
2017-12-17T07:44:06.359Z,1
2017-12-17T07:45:26.072Z,1
2017-12-17T07:47:00.983Z,1
2017-12-17T07:48:23.226Z,1
2017-12-17T07:49:42.987Z,1.1
2017-12-17T07:51:02.736Z,1.1
2017-12-17T07:52:25.006Z,1.1
2017-12-17T07:53:44.755Z,1.1
2017-12-17T07:55:07.030Z,1.2
2017-12-17T07:56:29.268Z,1.2
2017-12-17T07:57:49.002Z,1.2
2017-12-17T07:59:08.694Z,1.3
2017-12-17T08:00:30.994Z,1.3
2017-12-17T08:01:50.715Z,1.3
2017-12-17T08:03:12.956Z,1.2
2017-12-17T08:04:32.700Z,1.2
2017-12-17T08:05:52.435Z,1.2
2017-12-17T08:07:17.202Z,1.2
2017-12-17T08:08:44.495Z,1.3
2017-12-17T08:10:06.741Z,1.3
2017-12-17T08:11:31.535Z,1.3
2017-12-17T08:12:53.810Z,1.3
2017-12-17T08:14:13.540Z,1.3
2017-12-17T08:15:43.381Z,1.3
2017-12-17T08:17:08.183Z,1.4
2017-12-17T08:18:27.891Z,1.3
2017-12-17T08:19:52.749Z,1.3
2017-12-17T08:21:12.474Z,1.4
2017-12-17T08:22:32.175Z,1.4
2017-12-17T08:23:51.900Z,1.4
2017-12-17T08:25:11.646Z,1.4
2017-12-17T08:26:31.389Z,1.5
2017-12-17T08:27:51.099Z,1.5
2017-12-17T08:29:13.411Z,1.6
2017-12-17T08:30:33.192Z,1.6
2017-12-17T08:31:52.883Z,1.6
2017-12-17T08:33:12.574Z,1.6
2017-12-17T08:34:32.283Z,1.5
2017-12-17T08:35:52.048Z,1.5
2017-12-17T08:37:14.282Z,1.5
2017-12-17T08:38:41.629Z,1.5
2017-12-17T08:40:19.054Z,1.6
2017-12-17T08:41:40.119Z,1.6
2017-12-17T08:42:59.821Z,1.7
2017-12-17T08:44:24.566Z,1.7
2017-12-17T08:45:44.335Z,1.7
2017-12-17T08:47:04.069Z,1.7
2017-12-17T08:48:26.321Z,1.8
2017-12-17T08:49:46.035Z,2
2017-12-17T08:51:10.842Z,1.9
2017-12-17T08:52:30.582Z,1.9
2017-12-17T08:53:50.283Z,2
2017-12-17T08:55:20.166Z,2
2017-12-17T08:56:42.392Z,2
2017-12-17T08:58:02.118Z,1.9
2017-12-17T08:59:21.839Z,1.9
2017-12-17T09:00:44.108Z,1.9
2017-12-17T09:02:13.943Z,2
2017-12-17T09:03:33.670Z,2.1
2017-12-17T09:04:53.369Z,2.1
2017-12-17T09:06:13.082Z,2.1
2017-12-17T09:07:35.303Z,2.1
2017-12-17T09:09:02.682Z,2.2
2017-12-17T09:10:35.044Z,2.3
2017-12-17T09:11:59.808Z,2.4
2017-12-17T09:13:27.139Z,2.4
2017-12-17T09:14:46.901Z,2.4
2017-12-17T09:16:06.635Z,2.4
2017-12-17T09:17:28.920Z,2.5
2017-12-17T09:18:48.629Z,2.5
2017-12-17T09:20:15.968Z,2.6
2017-12-17T09:21:35.687Z,2.6
2017-12-17T09:22:55.391Z,2.7
2017-12-17T09:24:15.087Z,2.6
2017-12-17T09:25:34.795Z,2.7
2017-12-17T09:26:54.559Z,2.7
2017-12-17T09:28:19.320Z,2.6
2017-12-17T09:29:39.036Z,2.6
2017-12-17T09:31:01.318Z,2.7
2017-12-17T09:32:23.576Z,2.7
2017-12-17T09:33:43.276Z,2.8
2017-12-17T09:35:08.068Z,2.8
2017-12-17T09:36:27.781Z,2.9
2017-12-17T09:37:47.510Z,2.8
2017-12-17T09:39:17.342Z,2.6
2017-12-17T09:40:39.575Z,2.5
2017-12-17T09:41:59.288Z,2.6
2017-12-17T09:43:21.610Z,2.7
2017-12-17T09:44:41.352Z,2.6
2017-12-17T09:46:01.128Z,2.6
2017-12-17T09:47:20.924Z,2.7
2017-12-17T09:48:40.686Z,2.9
2017-12-17T09:50:00.436Z,3
2017-12-17T09:51:22.718Z,3
2017-12-17T09:52:42.455Z,3
2017-12-17T09:54:09.757Z,3.1
2017-12-17T09:55:29.485Z,3.1
2017-12-17T09:56:59.353Z,3.2
2017-12-17T09:58:19.110Z,3.2
2017-12-17T09:59:38.851Z,3.2
2017-12-17T10:01:01.114Z,3.2
2017-12-17T10:02:25.922Z,3
2017-12-17T10:03:48.171Z,3
2017-12-17T10:05:07.866Z,3.1
2017-12-17T10:06:30.087Z,3
2017-12-17T10:07:49.792Z,3.1
2017-12-17T10:09:09.529Z,3.1
2017-12-17T10:10:29.298Z,3.1
2017-12-17T10:11:49.068Z,3.1
2017-12-17T10:13:16.392Z,3
2017-12-17T10:14:38.629Z,3
2017-12-17T10:16:11.088Z,3
2017-12-17T10:17:33.338Z,2.9
2017-12-17T10:18:55.578Z,2.9
2017-12-17T10:20:15.367Z,3
2017-12-17T10:21:35.072Z,3.2
2017-12-17T10:22:57.312Z,3.4
2017-12-17T10:24:17.018Z,3.7
2017-12-17T10:25:36.751Z,3.7
2017-12-17T10:27:01.543Z,3.6
2017-12-17T10:28:23.820Z,3.4
2017-12-17T10:29:48.578Z,3.4
2017-12-17T10:31:08.330Z,3.6
2017-12-17T10:32:40.696Z,3.6
2017-12-17T10:34:00.399Z,3.6
2017-12-17T10:35:25.197Z,3.8
2017-12-17T10:36:47.436Z,4
2017-12-17T10:38:09.659Z,4.1
2017-12-17T10:39:29.371Z,4.1
2017-12-17T10:40:54.201Z,4.1
2017-12-17T10:42:13.950Z,4
2017-12-17T10:43:33.652Z,3.9
2017-12-17T10:44:53.362Z,3.9
2017-12-17T10:46:13.117Z,3.8
2017-12-17T10:47:32.849Z,3.7
2017-12-17T10:48:55.092Z,3.7
2017-12-17T10:50:17.356Z,3.7
2017-12-17T10:51:37.096Z,3.8
2017-12-17T10:53:01.885Z,3.7
2017-12-17T10:54:21.607Z,3.6
2017-12-17T10:55:43.881Z,3.6
2017-12-17T10:57:03.602Z,3.6
2017-12-17T10:58:23.365Z,3.4
2017-12-17T10:59:45.638Z,3.4
2017-12-17T11:01:05.379Z,3.3
2017-12-17T11:02:25.138Z,3.3
2017-12-17T11:03:57.553Z,3.3
2017-12-17T11:05:19.788Z,3.2
2017-12-17T11:06:39.508Z,2.8
2017-12-17T11:07:59.205Z,2.6
2017-12-17T11:09:21.475Z,2.5
2017-12-17T11:10:43.704Z,2.4
2017-12-17T11:12:03.458Z,2.4
2017-12-17T11:13:28.245Z,2.6
2017-12-17T11:14:48.024Z,2.9
2017-12-17T11:16:10.260Z,3.2
2017-12-17T11:17:32.494Z,3.6
2017-12-17T11:18:57.287Z,3.7
2017-12-17T11:20:17.054Z,3.6
2017-12-17T11:21:36.752Z,3.7
2017-12-17T11:22:56.455Z,4
2017-12-17T11:24:16.197Z,4.1
2017-12-17T11:25:36.001Z,3.9
2017-12-17T11:26:58.252Z,3.8
2017-12-17T11:28:20.532Z,3.6
2017-12-17T11:29:40.241Z,3.3
2017-12-17T11:31:05.041Z,3.2
2017-12-17T11:32:27.288Z,3.3
2017-12-17T11:33:47.041Z,3.6
2017-12-17T11:35:06.797Z,3.8
2017-12-17T11:36:26.507Z,4
2017-12-17T11:37:46.290Z,4
2017-12-17T11:39:06.077Z,4.1
2017-12-17T11:40:28.294Z,4.4
2017-12-17T11:41:48.026Z,4.6
2017-12-17T11:43:07.768Z,4.8
2017-12-17T11:44:27.526Z,4.9
2017-12-17T11:45:47.237Z,4.4
2017-12-17T11:47:12.033Z,3.7
2017-12-17T11:48:36.786Z,3.1
2017-12-17T11:49:59.031Z,2.7
2017-12-17T11:51:18.845Z,2.7
2017-12-17T11:52:38.559Z,3.1
2017-12-17T11:54:00.818Z,3.3
2017-12-17T11:55:20.543Z,3.2
2017-12-17T11:56:40.240Z,3.1
2017-12-17T11:58:02.574Z,2.7
2017-12-17T11:59:22.325Z,2.5
2017-12-17T12:00:42.021Z,2.2
2017-12-17T12:02:06.793Z,1.9
2017-12-17T12:03:29.059Z,1.7
2017-12-17T12:04:48.766Z,1.6
2017-12-17T12:06:13.565Z,1.5
2017-12-17T12:07:40.873Z,1.4
2017-12-17T12:09:00.606Z,1.3
2017-12-17T12:10:30.469Z,1.4
2017-12-17T12:11:50.187Z,1.5
2017-12-17T12:13:20.070Z,1.9
2017-12-17T12:14:42.326Z,2.4
2017-12-17T12:16:09.639Z,2.9
2017-12-17T12:17:29.368Z,3
2017-12-17T12:18:49.128Z,2.8
2017-12-17T12:20:08.844Z,2.7
2017-12-17T12:21:31.105Z,2.6
2017-12-17T12:22:53.350Z,2.8
2017-12-17T12:24:25.732Z,3.4
2017-12-17T12:25:45.504Z,3.9
2017-12-17T12:27:07.739Z,4.1
2017-12-17T12:28:27.435Z,4
2017-12-17T12:29:47.138Z,4.1
2017-12-17T12:31:06.862Z,3.8
2017-12-17T12:32:26.599Z,3.6
2017-12-17T12:33:46.328Z,3.5
2017-12-17T12:35:06.067Z,3.5
2017-12-17T12:36:33.428Z,3.5
2017-12-17T12:37:53.156Z,3.4
2017-12-17T12:39:12.883Z,3.2
2017-12-17T12:40:32.587Z,3.2
2017-12-17T12:41:52.322Z,3.2
2017-12-17T12:43:12.030Z,3.1
2017-12-17T12:44:34.282Z,3
2017-12-17T12:45:53.986Z,2.9
2017-12-17T12:47:18.790Z,2.8
2017-12-17T12:48:41.061Z,2.7
2017-12-17T12:50:03.326Z,2.7
2017-12-17T12:51:25.600Z,2.6
2017-12-17T12:52:45.330Z,2.6
2017-12-17T12:54:07.579Z,2.7
2017-12-17T12:55:27.302Z,2.7
2017-12-17T12:56:47.029Z,2.8
2017-12-17T12:58:09.288Z,2.8
2017-12-17T12:59:28.991Z,2.7
2017-12-17T13:00:48.702Z,2.7
2017-12-17T13:02:10.962Z,2.6
2017-12-17T13:03:38.283Z,2.6
2017-12-17T13:04:57.991Z,2.6
2017-12-17T13:06:17.723Z,2.6
2017-12-17T13:07:39.972Z,2.6
2017-12-17T13:08:59.707Z,2.5
2017-12-17T13:10:21.952Z,2.4
2017-12-17T13:11:41.657Z,2.4
2017-12-17T13:13:06.447Z,2.4
2017-12-17T13:14:28.693Z,2.4
2017-12-17T13:15:56.115Z,2.4
2017-12-17T13:17:20.945Z,2.4
2017-12-17T13:18:48.260Z,2.4
2017-12-17T13:20:07.992Z,2.2
2017-12-17T13:21:27.716Z,2.2
2017-12-17T13:22:52.517Z,2.2
2017-12-17T13:24:14.757Z,2.3
2017-12-17T13:25:37.016Z,2.2
2017-12-17T13:26:56.759Z,2.3
2017-12-17T13:28:16.470Z,2.2
2017-12-17T13:29:38.746Z,2.2
2017-12-17T13:30:58.475Z,2.2
2017-12-17T13:32:38.463Z,2.2
2017-12-17T13:33:58.212Z,2.2
2017-12-17T13:35:17.931Z,2.2
2017-12-17T13:36:40.241Z,2.2
2017-12-17T13:37:59.969Z,2.2
2017-12-17T13:39:19.715Z,2.1
2017-12-17T13:40:47.031Z,2.2
2017-12-17T13:42:06.809Z,2.2
2017-12-17T13:43:29.049Z,2.2
2017-12-17T13:44:48.747Z,2.2
2017-12-17T13:46:13.539Z,2.2
2017-12-17T13:47:45.933Z,2
2017-12-17T13:49:08.177Z,2
2017-12-17T13:50:30.448Z,2
2017-12-17T13:51:50.212Z,2
2017-12-17T13:53:20.125Z,2
2017-12-17T13:54:42.371Z,2
2017-12-17T13:56:04.611Z,2
2017-12-17T13:57:24.312Z,2
2017-12-17T13:58:46.623Z,2
2017-12-17T14:00:11.451Z,2
2017-12-17T14:01:31.214Z,2
2017-12-17T14:02:53.491Z,2.1
2017-12-17T14:04:15.748Z,2.1
2017-12-17T14:05:37.987Z,2.1
2017-12-17T14:06:57.752Z,2.1
2017-12-17T14:08:17.475Z,2
2017-12-17T14:09:37.218Z,2
2017-12-17T14:10:59.450Z,2
2017-12-17T14:12:26.732Z,2.1
2017-12-17T14:13:46.444Z,2.1
2017-12-17T14:15:16.310Z,2.2
2017-12-17T14:16:43.604Z,2.2
2017-12-17T14:18:03.366Z,2.2
2017-12-17T14:19:30.682Z,2.2
2017-12-17T14:20:52.988Z,2.2
2017-12-17T14:22:15.254Z,2.2
2017-12-17T14:23:37.484Z,2.2
2017-12-17T14:24:57.184Z,2.2
2017-12-17T14:26:19.444Z,2.3
2017-12-17T14:27:44.254Z,2.3
2017-12-17T14:29:06.502Z,2.3
2017-12-17T14:30:26.233Z,2.3
2017-12-17T14:31:48.485Z,2.4
2017-12-17T14:33:08.254Z,2.3
2017-12-17T14:34:28.041Z,2.3
2017-12-17T14:35:52.804Z,2.3
2017-12-17T14:37:15.148Z,2.2
2017-12-17T14:38:34.891Z,2.1
2017-12-17T14:39:59.706Z,2.1
2017-12-17T14:41:21.946Z,2.1
2017-12-17T14:42:41.690Z,2
2017-12-17T14:44:11.522Z,1.9
2017-12-17T14:45:41.400Z,1.9
2017-12-17T14:47:06.102Z,1.9
2017-12-17T14:48:25.823Z,1.9
2017-12-17T14:49:48.061Z,1.9
2017-12-17T14:51:07.767Z,1.8
2017-12-17T14:52:27.569Z,1.9
2017-12-17T14:53:47.309Z,1.9
2017-12-17T14:55:09.551Z,1.9
2017-12-17T14:56:29.296Z,1.9
2017-12-17T14:57:49.026Z,1.9
2017-12-17T14:59:08.760Z,1.8
2017-12-17T15:00:30.994Z,1.8
2017-12-17T15:01:50.749Z,1.8
2017-12-17T15:03:10.512Z,1.8
2017-12-17T15:04:30.283Z,1.7
2017-12-17T15:05:52.528Z,1.7
2017-12-17T15:07:24.889Z,1.7
2017-12-17T15:09:02.340Z,1.7
2017-12-17T15:10:22.070Z,1.7
2017-12-17T15:11:44.321Z,1.6
2017-12-17T15:13:04.068Z,1.6
2017-12-17T15:14:23.783Z,1.6
2017-12-17T15:15:43.491Z,1.5
2017-12-17T15:17:10.789Z,1.5
2017-12-17T15:18:30.498Z,1.6
2017-12-17T15:19:52.785Z,1.6
2017-12-17T15:21:17.594Z,1.6
2017-12-17T15:22:37.341Z,1.5
2017-12-17T15:23:59.605Z,1.5
2017-12-17T15:25:34.517Z,1.4
2017-12-17T15:27:01.828Z,1.5
2017-12-17T15:28:24.073Z,1.5
2017-12-17T15:29:51.376Z,1.5
2017-12-17T15:31:11.144Z,1.4
2017-12-17T15:32:30.864Z,1.4
2017-12-17T15:33:55.617Z,1.3
2017-12-17T15:35:15.347Z,1.3
2017-12-17T15:36:40.146Z,1.3
2017-12-17T15:38:07.529Z,1.3
2017-12-17T15:39:34.855Z,1.4
2017-12-17T15:40:54.605Z,1.3
2017-12-17T15:42:16.862Z,1.3
2017-12-17T15:43:41.646Z,1.3
2017-12-17T15:45:08.956Z,1.3
2017-12-17T15:46:28.672Z,1.3
2017-12-17T15:47:48.399Z,1.3
2017-12-17T15:49:13.216Z,1.2
2017-12-17T15:50:45.632Z,1.2
2017-12-17T15:52:05.407Z,1.2
2017-12-17T15:53:30.233Z,1.2
2017-12-17T15:55:00.160Z,1.2
2017-12-17T15:56:19.992Z,1.1
2017-12-17T15:57:47.357Z,1.1
2017-12-17T15:59:07.087Z,1.1
2017-12-17T16:00:26.806Z,1
2017-12-17T16:01:46.510Z,1
2017-12-17T16:03:11.327Z,1
2017-12-17T16:04:31.027Z,1
2017-12-17T16:05:50.771Z,1
2017-12-17T16:07:10.484Z,1
2017-12-17T16:08:30.215Z,1
2017-12-17T16:09:55.012Z,1
2017-12-17T16:11:14.783Z,1
2017-12-17T16:12:37.051Z,1.1
2017-12-17T16:13:56.747Z,1.1
2017-12-17T16:15:31.647Z,1.1
2017-12-17T16:16:51.433Z,1.1
2017-12-17T16:18:13.682Z,1.1
2017-12-17T16:19:33.384Z,1.2
2017-12-17T16:20:53.081Z,1.2
2017-12-17T16:22:15.391Z,1.2
2017-12-17T16:23:37.623Z,1.2
2017-12-17T16:25:10.083Z,1.2
2017-12-17T16:26:29.850Z,1.2
2017-12-17T16:27:49.627Z,1.2
2017-12-17T16:29:32.109Z,1.2
2017-12-17T16:30:54.367Z,1.3
2017-12-17T16:32:16.600Z,1.3
2017-12-17T16:33:43.993Z,1.3
2017-12-17T16:35:03.757Z,1.3
2017-12-17T16:36:28.509Z,1.3
2017-12-17T16:37:50.760Z,1.3
2017-12-17T16:39:20.667Z,1.3
2017-12-17T16:40:40.382Z,1.3
2017-12-17T16:42:02.623Z,1.3
2017-12-17T16:43:22.367Z,1.4
2017-12-17T16:44:42.082Z,1.4
2017-12-17T16:46:06.862Z,1.4
2017-12-17T16:47:36.703Z,1.3
2017-12-17T16:49:01.463Z,1.3
2017-12-17T16:50:21.186Z,1.3
2017-12-17T16:51:40.892Z,1.3
2017-12-17T16:53:00.655Z,1.3
2017-12-17T16:54:25.437Z,1.3
2017-12-17T16:55:45.168Z,1.4
2017-12-17T16:57:12.474Z,1.3
2017-12-17T16:58:32.187Z,1.3
2017-12-17T16:59:51.922Z,1.3
2017-12-17T17:01:11.665Z,1.4
2017-12-17T17:02:56.683Z,1.4
2017-12-17T17:04:18.978Z,1.4
2017-12-17T17:05:38.738Z,1.4
2017-12-17T17:07:00.991Z,1.3
2017-12-17T17:08:20.706Z,1.3
2017-12-17T17:09:42.984Z,1.4
2017-12-17T17:11:07.771Z,1.4
2017-12-17T17:12:27.516Z,1.4
2017-12-17T17:13:49.807Z,1.4
2017-12-17T17:15:12.053Z,1.4
2017-12-17T17:16:31.765Z,1.4
2017-12-17T17:17:54.055Z,1.4
2017-12-17T17:19:13.775Z,1.4
2017-12-17T17:20:33.478Z,1.4
2017-12-17T17:21:55.774Z,1.4
2017-12-17T17:23:18.055Z,1.4
2017-12-17T17:24:40.354Z,1.3
2017-12-17T17:26:02.635Z,1.4
2017-12-17T17:27:22.362Z,1.4
2017-12-17T17:28:49.746Z,1.4
2017-12-17T17:30:09.509Z,1.5
2017-12-17T17:31:31.752Z,1.4
2017-12-17T17:32:51.458Z,1.5
2017-12-17T17:34:16.249Z,1.5
2017-12-17T17:35:38.477Z,1.5
2017-12-17T17:37:00.764Z,1.5
2017-12-17T17:38:20.469Z,1.4
2017-12-17T17:39:42.753Z,1.3
2017-12-17T17:41:02.524Z,1.3
2017-12-17T17:42:22.225Z,1.3
2017-12-17T17:43:44.489Z,1.2
2017-12-17T17:45:09.383Z,1.2
2017-12-17T17:46:29.127Z,1.2
2017-12-17T17:47:53.963Z,1.2
2017-12-17T17:49:13.665Z,1.3
2017-12-17T17:50:33.390Z,1.4
2017-12-17T17:51:53.159Z,1.4
2017-12-17T17:53:20.451Z,1.4
2017-12-17T17:54:42.712Z,1.4
2017-12-17T17:56:02.482Z,1.4
2017-12-17T17:57:27.225Z,1.4
2017-12-17T17:58:46.989Z,1.4
2017-12-17T18:00:16.855Z,1.5
2017-12-17T18:01:36.592Z,1.4
2017-12-17T18:02:56.313Z,1.4
2017-12-17T18:04:16.061Z,1.4
2017-12-17T18:05:45.938Z,1.4
2017-12-17T18:07:10.736Z,1.5
2017-12-17T18:08:32.998Z,1.5
2017-12-17T18:09:55.246Z,1.5
2017-12-17T18:11:20.063Z,1.5
2017-12-17T18:12:39.813Z,1.5
2017-12-17T18:13:59.562Z,1.5
2017-12-17T18:15:21.816Z,1.6
2017-12-17T18:16:44.120Z,1.6
2017-12-17T18:18:06.385Z,1.6
2017-12-17T18:19:31.156Z,1.5
2017-12-17T18:20:50.887Z,1.5
2017-12-17T18:22:13.129Z,1.5
2017-12-17T18:23:32.900Z,1.4
2017-12-17T18:25:00.212Z,1.4
2017-12-17T18:26:19.941Z,1.4
2017-12-17T18:27:42.185Z,1.4
2017-12-17T18:29:01.931Z,1.4
2017-12-17T18:30:21.707Z,1.5
2017-12-17T18:31:41.428Z,1.5
2017-12-17T18:33:03.692Z,1.5
2017-12-17T18:34:23.426Z,1.5
2017-12-17T18:35:48.186Z,1.6
2017-12-17T18:37:07.960Z,1.6
2017-12-17T18:38:32.720Z,1.6
2017-12-17T18:39:52.451Z,1.6
2017-12-17T18:41:12.162Z,1.6
2017-12-17T18:42:31.869Z,1.7
2017-12-17T18:43:56.644Z,1.7
2017-12-17T18:45:16.425Z,1.6
2017-12-17T18:46:43.776Z,1.6
2017-12-17T18:48:06.019Z,1.6
2017-12-17T18:49:33.330Z,1.7
2017-12-17T18:50:55.580Z,1.6
2017-12-17T18:52:15.286Z,1.6
2017-12-17T18:53:37.546Z,1.7
2017-12-17T18:54:57.243Z,1.7
2017-12-17T18:56:16.976Z,1.7
2017-12-17T18:57:41.806Z,1.7